createdAt,value
2017-12-22T00:00:29.937Z,8.07
2017-12-22T00:01:29.701Z,8.04
2017-12-22T00:02:29.900Z,8.02
2017-12-22T00:03:29.899Z,8.02
2017-12-22T00:04:29.924Z,8.01
2017-12-22T00:05:29.880Z,8.01
2017-12-22T00:06:29.603Z,8.01
2017-12-22T00:07:29.852Z,8.02
2017-12-22T00:08:29.862Z,8.04
2017-12-22T00:09:29.852Z,8.02
2017-12-22T00:10:29.835Z,8
2017-12-22T00:11:29.832Z,7.98
2017-12-22T00:12:29.799Z,8.01
2017-12-22T00:13:29.797Z,8.04
2017-12-22T00:14:29.806Z,8.02
2017-12-22T00:15:29.784Z,8.05
2017-12-22T00:16:29.506Z,8.04
2017-12-22T00:17:29.745Z,7.95
2017-12-22T00:18:29.726Z,7.95
2017-12-22T00:19:29.710Z,8.04
2017-12-22T00:20:29.471Z,8.05
2017-12-22T00:21:29.694Z,8.02
2017-12-22T00:22:29.194Z,8.04
2017-12-22T00:23:29.677Z,8.08
2017-12-22T00:24:29.404Z,8.02
2017-12-22T00:25:29.647Z,8.16
2017-12-22T00:26:29.630Z,7.98
2017-12-22T00:27:29.373Z,8.02
2017-12-22T00:28:29.634Z,8.02
2017-12-22T00:29:29.406Z,8.01
2017-12-22T00:30:29.627Z,8.18
2017-12-22T00:31:29.588Z,8.02
2017-12-22T00:32:29.588Z,8.05
2017-12-22T00:33:29.553Z,8.04
2017-12-22T00:34:29.544Z,8.11
2017-12-22T00:35:29.289Z,7.98
2017-12-22T00:36:29.521Z,8.02
2017-12-22T00:37:29.521Z,8.01
2017-12-22T00:38:29.518Z,7.95
2017-12-22T00:39:29.507Z,7.98
2017-12-22T00:40:29.491Z,7.83
2017-12-22T00:41:29.468Z,7.93
2017-12-22T00:42:29.453Z,7.93
2017-12-22T00:43:29.448Z,7.9
2017-12-22T00:44:29.175Z,7.92
2017-12-22T00:45:29.426Z,7.87
2017-12-22T00:46:29.405Z,7.83
2017-12-22T00:47:29.393Z,7.8
2017-12-22T00:48:29.129Z,7.97
2017-12-22T00:49:29.379Z,7.89
2017-12-22T00:50:29.354Z,7.97
2017-12-22T00:51:29.352Z,7.86
2017-12-22T00:52:29.341Z,7.87
2017-12-22T00:53:29.354Z,7.89
2017-12-22T00:54:29.319Z,7.87
2017-12-22T00:55:29.304Z,7.9
2017-12-22T00:56:29.289Z,7.89
2017-12-22T00:57:29.284Z,7.93
2017-12-22T00:58:29.273Z,7.98
2017-12-22T00:59:29.263Z,7.98
2017-12-22T01:00:29.244Z,8
2017-12-22T01:01:29.247Z,7.97
2017-12-22T01:02:29.226Z,8.02
2017-12-22T01:03:28.959Z,8.05
2017-12-22T01:04:29.204Z,8.07
2017-12-22T01:05:29.207Z,8.01
2017-12-22T01:06:29.187Z,8.08
2017-12-22T01:07:29.171Z,8.04
2017-12-22T01:08:28.906Z,8.07
2017-12-22T01:09:29.160Z,8.04
2017-12-22T01:10:29.134Z,7.98
2017-12-22T01:11:28.877Z,7.97
2017-12-22T01:12:29.118Z,7.95
2017-12-22T01:13:29.091Z,7.82
2017-12-22T01:14:29.110Z,7.9
2017-12-22T01:15:28.815Z,7.9
2017-12-22T01:16:29.063Z,7.8
2017-12-22T01:17:29.062Z,7.82
2017-12-22T01:18:29.036Z,7.8
2017-12-22T01:19:29.035Z,7.87
2017-12-22T01:20:29.025Z,7.79
2017-12-22T01:21:29.010Z,7.82
2017-12-22T01:22:28.996Z,7.77
2017-12-22T01:23:28.999Z,7.77
2017-12-22T01:24:28.980Z,7.79
2017-12-22T01:25:28.448Z,7.75
2017-12-22T01:26:28.699Z,7.82
2017-12-22T01:27:28.944Z,7.77
2017-12-22T01:28:28.931Z,7.82
2017-12-22T01:29:28.919Z,7.71
2017-12-22T01:30:28.648Z,7.71
2017-12-22T01:31:28.644Z,7.75
2017-12-22T01:32:28.887Z,7.72
2017-12-22T01:33:28.607Z,7.83
2017-12-22T01:34:28.595Z,7.68
2017-12-22T01:35:28.848Z,7.75
2017-12-22T01:36:28.852Z,7.75
2017-12-22T01:37:28.825Z,7.83
2017-12-22T01:38:28.552Z,7.79
2017-12-22T01:39:28.807Z,7.8
2017-12-22T01:40:28.788Z,7.86
2017-12-22T01:41:28.518Z,7.83
2017-12-22T01:42:28.759Z,7.82
2017-12-22T01:43:28.489Z,7.8
2017-12-22T01:44:28.755Z,7.8
2017-12-22T01:45:28.733Z,7.79
2017-12-22T01:46:28.720Z,7.82
2017-12-22T01:47:28.713Z,7.87
2017-12-22T01:48:28.693Z,7.79
2017-12-22T01:49:28.693Z,7.83
2017-12-22T01:50:28.688Z,7.89
2017-12-22T01:51:28.672Z,7.82
2017-12-22T01:52:28.665Z,7.87
2017-12-22T01:53:28.643Z,7.85
2017-12-22T01:54:28.638Z,7.89
2017-12-22T01:55:28.615Z,7.89
2017-12-22T01:56:28.343Z,7.89
2017-12-22T01:57:28.609Z,7.9
2017-12-22T01:58:28.578Z,7.92
2017-12-22T01:59:28.563Z,7.79
2017-12-22T02:00:28.553Z,7.87
2017-12-22T02:01:28.540Z,7.9
2017-12-22T02:02:28.540Z,7.87
2017-12-22T02:03:28.520Z,7.87
2017-12-22T02:04:28.514Z,7.87
2017-12-22T02:05:28.508Z,7.93
2017-12-22T02:06:28.502Z,7.89
2017-12-22T02:07:28.481Z,7.98
2017-12-22T02:08:28.465Z,7.97
2017-12-22T02:09:28.453Z,7.93
2017-12-22T02:10:28.455Z,7.98
2017-12-22T02:11:28.179Z,7.95
2017-12-22T02:12:28.425Z,7.97
2017-12-22T02:13:28.409Z,7.97
2017-12-22T02:14:28.142Z,7.98
2017-12-22T02:15:28.405Z,7.97
2017-12-22T02:16:28.120Z,7.97
2017-12-22T02:17:28.377Z,7.97
2017-12-22T02:18:28.346Z,8.07
2017-12-22T02:19:28.338Z,7.98
2017-12-22T02:20:28.072Z,8
2017-12-22T02:21:28.314Z,8.02
2017-12-22T02:22:28.311Z,8.02
2017-12-22T02:23:28.300Z,8.01
2017-12-22T02:24:28.279Z,8.05
2017-12-22T02:25:28.288Z,8.02
2017-12-22T02:26:28.266Z,7.98
2017-12-22T02:27:28.261Z,8.15
2017-12-22T02:28:27.727Z,8.12
2017-12-22T02:29:27.968Z,8.01
2017-12-22T02:30:28.229Z,8.07
2017-12-22T02:31:28.199Z,8.05
2017-12-22T02:32:28.219Z,8.01
2017-12-22T02:33:28.188Z,8.02
2017-12-22T02:34:28.166Z,8.02
2017-12-22T02:35:28.153Z,8
2017-12-22T02:36:28.163Z,8.01
2017-12-22T02:37:28.143Z,8.02
2017-12-22T02:38:28.151Z,8.15
2017-12-22T02:39:28.113Z,8.1
2017-12-22T02:40:28.107Z,8.16
2017-12-22T02:41:27.836Z,8.11
2017-12-22T02:42:28.093Z,8.12
2017-12-22T02:43:28.081Z,8.15
2017-12-22T02:44:28.053Z,8.16
2017-12-22T02:45:28.058Z,8.11
2017-12-22T02:46:28.033Z,8.11
2017-12-22T02:47:28.043Z,8.18
2017-12-22T02:48:28.020Z,8.16
2017-12-22T02:49:28.016Z,8.16
2017-12-22T02:50:28.001Z,8.15
2017-12-22T02:51:27.995Z,8.12
2017-12-22T02:52:27.979Z,8.16
2017-12-22T02:53:27.959Z,8.12
2017-12-22T02:54:27.963Z,8.05
2017-12-22T02:55:27.947Z,8.19
2017-12-22T02:56:27.928Z,8.15
2017-12-22T02:57:27.916Z,8.12
2017-12-22T02:58:27.907Z,8.1
2017-12-22T02:59:27.881Z,8.15
2017-12-22T03:00:27.878Z,8.11
2017-12-22T03:01:27.871Z,8.22
2017-12-22T03:02:27.856Z,8.05
2017-12-22T03:03:27.847Z,8.19
2017-12-22T03:04:27.837Z,8.07
2017-12-22T03:05:27.840Z,8.08
2017-12-22T03:06:27.552Z,8.19
2017-12-22T03:07:27.790Z,8.04
2017-12-22T03:08:27.807Z,8.11
2017-12-22T03:09:27.773Z,8.11
2017-12-22T03:10:27.759Z,8.16
2017-12-22T03:11:27.493Z,8.16
2017-12-22T03:12:27.731Z,8.12
2017-12-22T03:13:27.736Z,8.15
2017-12-22T03:14:27.729Z,8.18
2017-12-22T03:15:27.707Z,8.15
2017-12-22T03:16:27.695Z,8.18
2017-12-22T03:17:27.422Z,8.12
2017-12-22T03:18:27.667Z,8.12
2017-12-22T03:19:27.398Z,8.15
2017-12-22T03:20:27.666Z,8.08
2017-12-22T03:21:27.629Z,8.11
2017-12-22T03:22:27.622Z,8.16
2017-12-22T03:23:27.629Z,8.18
2017-12-22T03:24:27.610Z,8.16
2017-12-22T03:25:27.596Z,8.19
2017-12-22T03:26:27.576Z,8.19
2017-12-22T03:27:27.567Z,8.15
2017-12-22T03:28:27.552Z,8.22
2017-12-22T03:29:27.543Z,8.25
2017-12-22T03:30:27.553Z,8.26
2017-12-22T03:31:27.278Z,8.18
2017-12-22T03:32:27.506Z,8.19
2017-12-22T03:33:27.254Z,8.25
2017-12-22T03:34:27.484Z,8.26
2017-12-22T03:35:27.490Z,8.16
2017-12-22T03:36:27.466Z,8.15
2017-12-22T03:37:27.459Z,8.19
2017-12-22T03:38:27.451Z,8.11
2017-12-22T03:39:27.173Z,8.02
2017-12-22T03:40:27.418Z,8.05
2017-12-22T03:41:27.408Z,8.12
2017-12-22T03:42:27.414Z,8.16
2017-12-22T03:43:27.383Z,8.18
2017-12-22T03:44:27.379Z,8.16
2017-12-22T03:45:27.368Z,8.12
2017-12-22T03:46:27.350Z,8.1
2017-12-22T03:47:27.354Z,8.22
2017-12-22T03:48:27.083Z,8.26
2017-12-22T03:49:27.321Z,8.33
2017-12-22T03:50:27.316Z,8.25
2017-12-22T03:51:27.304Z,8.36
2017-12-22T03:52:27.290Z,8.28
2017-12-22T03:53:27.291Z,8.29
2017-12-22T03:54:27.277Z,8.26
2017-12-22T03:55:27.257Z,8.19
2017-12-22T03:56:27.667Z,8.22
2017-12-22T03:57:27.239Z,8.26
2017-12-22T03:58:27.223Z,8.2
2017-12-22T03:59:26.950Z,8.16
2017-12-22T04:00:27.202Z,8.15
2017-12-22T04:01:27.200Z,8.16
2017-12-22T04:02:26.919Z,8.15
2017-12-22T04:03:27.172Z,8.15
2017-12-22T04:04:27.169Z,8.19
2017-12-22T04:05:27.151Z,8.2
2017-12-22T04:06:27.123Z,8.11
2017-12-22T04:07:27.121Z,8.19
2017-12-22T04:08:27.116Z,8.22
2017-12-22T04:09:27.146Z,8.3
2017-12-22T04:10:27.076Z,8.2
2017-12-22T04:11:27.077Z,8.28
2017-12-22T04:12:27.070Z,8.26
2017-12-22T04:13:27.054Z,8.23
2017-12-22T04:14:27.040Z,8.22
2017-12-22T04:15:27.032Z,8.25
2017-12-22T04:16:27.011Z,8.26
2017-12-22T04:17:27.010Z,8.25
2017-12-22T04:18:27.002Z,8.29
2017-12-22T04:19:26.984Z,8.23
2017-12-22T04:20:26.970Z,8.15
2017-12-22T04:21:26.699Z,8.19
2017-12-22T04:22:26.959Z,8.15
2017-12-22T04:23:26.948Z,8.1
2017-12-22T04:24:26.929Z,8.12
2017-12-22T04:25:26.660Z,8.12
2017-12-22T04:26:26.912Z,8.11
2017-12-22T04:27:26.896Z,8.25
2017-12-22T04:28:26.887Z,8.22
2017-12-22T04:29:26.871Z,8.22
2017-12-22T04:30:26.866Z,8.19
2017-12-22T04:31:26.842Z,8.18
2017-12-22T04:32:26.842Z,8.26
2017-12-22T04:33:26.847Z,8.29
2017-12-22T04:34:26.828Z,8.1
2017-12-22T04:35:26.813Z,8.15
2017-12-22T04:36:26.790Z,8.18
2017-12-22T04:37:26.778Z,8.2
2017-12-22T04:38:26.771Z,8.16
2017-12-22T04:39:26.753Z,8.16
2017-12-22T04:40:26.749Z,8.12
2017-12-22T04:41:26.737Z,8.19
2017-12-22T04:42:26.730Z,8.11
2017-12-22T04:43:26.705Z,8.15
2017-12-22T04:44:26.701Z,8.22
2017-12-22T04:45:26.709Z,8.19
2017-12-22T04:46:26.683Z,8.22
2017-12-22T04:47:26.672Z,8.22
2017-12-22T04:48:26.667Z,8.23
2017-12-22T04:49:26.639Z,8.28
2017-12-22T04:50:26.921Z,8.34
2017-12-22T04:51:26.637Z,8.22
2017-12-22T04:52:26.619Z,8.29
2017-12-22T04:53:26.606Z,8.1
2017-12-22T04:54:26.591Z,8.18
2017-12-22T04:55:26.581Z,8.16
2017-12-22T04:56:26.562Z,8.15
2017-12-22T04:57:26.298Z,8.04
2017-12-22T04:58:26.538Z,8.16
2017-12-22T04:59:26.545Z,8.18
2017-12-22T05:00:26.529Z,8.1
2017-12-22T05:01:26.514Z,8.26
2017-12-22T05:02:26.508Z,8.25
2017-12-22T05:03:26.485Z,8.25
2017-12-22T05:04:26.475Z,8.18
2017-12-22T05:05:26.474Z,8.11
2017-12-22T05:06:26.452Z,8.16
2017-12-22T05:07:26.450Z,8.11
2017-12-22T05:08:26.428Z,8.11
2017-12-22T05:09:26.422Z,8.19
2017-12-22T05:10:26.405Z,8.15
2017-12-22T05:11:26.395Z,8.22
2017-12-22T05:12:26.383Z,8.29
2017-12-22T05:13:26.385Z,8.29
2017-12-22T05:14:26.399Z,8.3
2017-12-22T05:15:26.359Z,8.34
2017-12-22T05:16:26.344Z,8.34
2017-12-22T05:17:26.340Z,8.4
2017-12-22T05:18:26.340Z,8.37
2017-12-22T05:19:26.315Z,8.47
2017-12-22T05:20:26.315Z,8.47
2017-12-22T05:21:26.343Z,8.43
2017-12-22T05:22:26.269Z,8.45
2017-12-22T05:23:26.276Z,8.44
2017-12-22T05:24:26.248Z,8.4
2017-12-22T05:25:26.236Z,8.44
2017-12-22T05:26:26.233Z,8.43
2017-12-22T05:27:26.217Z,8.48
2017-12-22T05:28:26.215Z,8.48
2017-12-22T05:29:26.202Z,8.52
2017-12-22T05:30:26.188Z,8.48
2017-12-22T05:31:26.272Z,8.58
2017-12-22T05:32:26.171Z,8.48
2017-12-22T05:33:25.902Z,8.52
2017-12-22T05:34:26.137Z,8.48
2017-12-22T05:35:26.125Z,8.52
2017-12-22T05:36:26.126Z,8.53
2017-12-22T05:37:26.106Z,8.48
2017-12-22T05:38:26.098Z,8.47
2017-12-22T05:39:25.830Z,8.4
2017-12-22T05:40:26.070Z,8.52
2017-12-22T05:41:26.081Z,8.47
2017-12-22T05:42:25.795Z,8.44
2017-12-22T05:43:26.043Z,8.52
2017-12-22T05:44:25.779Z,8.45
2017-12-22T05:45:26.023Z,8.41
2017-12-22T05:46:26.013Z,8.44
2017-12-22T05:47:25.752Z,8.43
2017-12-22T05:48:25.987Z,8.44
2017-12-22T05:49:25.987Z,8.48
2017-12-22T05:50:25.703Z,8.52
2017-12-22T05:51:25.702Z,8.53
2017-12-22T05:52:25.936Z,8.53
2017-12-22T05:53:25.947Z,8.5
2017-12-22T05:54:25.932Z,8.52
2017-12-22T05:55:25.909Z,8.53
2017-12-22T05:56:25.977Z,8.55
2017-12-22T05:57:25.627Z,8.55
2017-12-22T05:58:25.629Z,8.48
2017-12-22T05:59:25.865Z,8.56
2017-12-22T06:00:25.871Z,8.61
2017-12-22T06:01:25.847Z,8.53
2017-12-22T06:02:25.837Z,8.65
2017-12-22T06:03:25.832Z,8.58
2017-12-22T06:04:25.811Z,8.61
2017-12-22T06:05:25.803Z,8.58
2017-12-22T06:06:25.792Z,8.63
2017-12-22T06:07:25.788Z,8.7
2017-12-22T06:08:25.808Z,8.7
2017-12-22T06:09:25.762Z,8.59
2017-12-22T06:10:25.760Z,8.61
2017-12-22T06:11:25.736Z,8.65
2017-12-22T06:12:25.726Z,8.65
2017-12-22T06:13:25.717Z,8.59
2017-12-22T06:14:25.706Z,8.56
2017-12-22T06:15:25.739Z,8.66
2017-12-22T06:16:25.675Z,8.68
2017-12-22T06:17:25.665Z,8.76
2017-12-22T06:18:25.698Z,8.7
2017-12-22T06:19:25.659Z,8.7
2017-12-22T06:20:25.633Z,8.66
2017-12-22T06:21:25.628Z,8.65
2017-12-22T06:22:25.620Z,8.56
2017-12-22T06:23:25.614Z,8.71
2017-12-22T06:24:25.582Z,8.62
2017-12-22T06:25:25.583Z,8.73
2017-12-22T06:26:25.581Z,8.7
2017-12-22T06:27:25.556Z,8.74
2017-12-22T06:28:25.551Z,8.7
2017-12-22T06:29:25.536Z,8.71
2017-12-22T06:30:25.532Z,8.68
2017-12-22T06:31:25.519Z,8.58
2017-12-22T06:32:25.512Z,8.7
2017-12-22T06:33:25.503Z,8.74
2017-12-22T06:34:25.564Z,8.66
2017-12-22T06:35:25.472Z,8.71
2017-12-22T06:36:25.474Z,8.74
2017-12-22T06:37:25.459Z,8.71
2017-12-22T06:38:25.439Z,8.74
2017-12-22T06:39:25.182Z,8.73
2017-12-22T06:40:25.422Z,8.71
2017-12-22T06:41:25.442Z,8.84
2017-12-22T06:42:25.413Z,8.77
2017-12-22T06:43:25.385Z,8.71
2017-12-22T06:44:25.372Z,8.74
2017-12-22T06:45:25.377Z,8.71
2017-12-22T06:46:25.360Z,8.66
2017-12-22T06:47:25.349Z,8.83
2017-12-22T06:48:25.348Z,8.76
2017-12-22T06:49:25.060Z,8.74
2017-12-22T06:50:25.304Z,8.73
2017-12-22T06:51:25.304Z,8.8
2017-12-22T06:52:25.315Z,8.77
2017-12-22T06:53:25.293Z,8.86
2017-12-22T06:54:25.572Z,8.83
2017-12-22T06:55:25.262Z,8.8
2017-12-22T06:56:25.247Z,8.84
2017-12-22T06:57:25.237Z,8.92
2017-12-22T06:58:25.234Z,8.84
2017-12-22T06:59:25.220Z,8.86
2017-12-22T07:00:25.202Z,8.86
2017-12-22T07:01:25.196Z,8.89
2017-12-22T07:02:24.925Z,8.81
2017-12-22T07:03:25.178Z,8.96
2017-12-22T07:04:24.904Z,8.87
2017-12-22T07:05:25.195Z,8.96
2017-12-22T07:06:25.154Z,8.87
2017-12-22T07:07:24.869Z,8.89
2017-12-22T07:08:25.124Z,8.96
2017-12-22T07:09:25.106Z,8.98
2017-12-22T07:10:24.842Z,8.94
2017-12-22T07:11:24.833Z,8.99
2017-12-22T07:12:25.066Z,9.02
2017-12-22T07:13:25.056Z,9.05
2017-12-22T07:14:25.058Z,9.02
2017-12-22T07:15:25.305Z,9.02
2017-12-22T07:16:25.035Z,9.04
2017-12-22T07:17:25.025Z,9.04
2017-12-22T07:18:25.010Z,9.01
2017-12-22T07:19:24.998Z,9.04
2017-12-22T07:20:24.744Z,9.02
2017-12-22T07:21:24.985Z,8.99
2017-12-22T07:22:24.980Z,9.02
2017-12-22T07:23:24.963Z,9.05
2017-12-22T07:24:24.940Z,9.04
2017-12-22T07:25:24.931Z,9.02
2017-12-22T07:26:24.925Z,9.02
2017-12-22T07:27:24.912Z,9.02
2017-12-22T07:28:24.907Z,9.04
2017-12-22T07:29:24.894Z,9.05
2017-12-22T07:30:24.882Z,9.02
2017-12-22T07:31:24.860Z,9.1
2017-12-22T07:32:24.862Z,8.99
2017-12-22T07:33:24.843Z,9.1
2017-12-22T07:34:24.843Z,9.1
2017-12-22T07:35:24.817Z,9.11
2017-12-22T07:36:24.816Z,9.17
2017-12-22T07:37:24.805Z,9.13
2017-12-22T07:38:24.790Z,9.15
2017-12-22T07:39:24.535Z,9.13
2017-12-22T07:40:24.781Z,9.11
2017-12-22T07:41:24.822Z,9.14
2017-12-22T07:42:24.750Z,9.2
2017-12-22T07:43:24.759Z,9.18
2017-12-22T07:44:24.741Z,9.05
2017-12-22T07:45:24.720Z,9.17
2017-12-22T07:46:24.713Z,9.13
2017-12-22T07:47:24.712Z,9.18
2017-12-22T07:48:24.688Z,9.31
2017-12-22T07:49:24.418Z,9.26
2017-12-22T07:50:24.666Z,9.26
2017-12-22T07:51:24.660Z,9.33
2017-12-22T07:52:24.647Z,9.32
2017-12-22T07:53:24.386Z,9.31
2017-12-22T07:54:24.724Z,9.32
2017-12-22T07:55:24.668Z,9.33
2017-12-22T07:56:24.594Z,9.32
2017-12-22T07:57:24.595Z,9.32
2017-12-22T07:58:24.583Z,9.32
2017-12-22T07:59:24.567Z,9.31
2017-12-22T08:00:24.305Z,9.29
2017-12-22T08:01:24.551Z,9.26
2017-12-22T08:02:24.551Z,9.36
2017-12-22T08:03:24.278Z,9.18
2017-12-22T08:04:24.517Z,9.15
2017-12-22T08:05:24.520Z,9.17
2017-12-22T08:06:24.509Z,9.18
2017-12-22T08:07:24.481Z,9.2
2017-12-22T08:08:24.520Z,9.08
2017-12-22T08:09:24.499Z,9.15
2017-12-22T08:10:24.490Z,9.11
2017-12-22T08:11:24.454Z,9.08
2017-12-22T08:12:24.476Z,9.08
2017-12-22T08:13:24.461Z,8.96
2017-12-22T08:14:24.432Z,8.91
2017-12-22T08:15:24.406Z,8.91
2017-12-22T08:16:24.396Z,8.84
2017-12-22T08:17:24.409Z,8.92
2017-12-22T08:18:24.388Z,9.01
2017-12-22T08:19:24.367Z,8.94
2017-12-22T08:20:24.399Z,8.87
2017-12-22T08:21:24.087Z,8.89
2017-12-22T08:22:24.340Z,8.98
2017-12-22T08:23:24.330Z,8.98
2017-12-22T08:24:24.313Z,9.02
2017-12-22T08:25:24.315Z,9.04
2017-12-22T08:26:24.290Z,8.99
2017-12-22T08:27:24.283Z,8.95
2017-12-22T08:28:24.274Z,9.13
2017-12-22T08:29:24.262Z,9.05
2017-12-22T08:30:24.261Z,9.14
2017-12-22T08:31:24.238Z,9.1
2017-12-22T08:32:23.969Z,9.23
2017-12-22T08:33:24.240Z,9.15
2017-12-22T08:34:24.206Z,9.24
2017-12-22T08:35:24.194Z,9.17
2017-12-22T08:36:23.664Z,9.23
2017-12-22T08:37:24.177Z,9.18
2017-12-22T08:38:24.176Z,9.18
2017-12-22T08:39:24.152Z,9.26
2017-12-22T08:40:24.136Z,9.29
2017-12-22T08:41:23.877Z,9.32
2017-12-22T08:42:24.139Z,9.35
2017-12-22T08:43:24.106Z,9.38
2017-12-22T08:44:24.117Z,9.35
2017-12-22T08:45:24.095Z,9.42
2017-12-22T08:46:24.145Z,9.46
2017-12-22T08:47:24.113Z,9.47
2017-12-22T08:48:24.082Z,9.46
2017-12-22T08:49:24.102Z,9.5
2017-12-22T08:50:24.048Z,9.48
2017-12-22T08:51:24.033Z,9.47
2017-12-22T08:52:24.024Z,9.61
2017-12-22T08:53:24.020Z,9.64
2017-12-22T08:54:24.004Z,9.68
2017-12-22T08:55:23.988Z,9.71
2017-12-22T08:56:23.721Z,9.71
2017-12-22T08:57:23.977Z,9.79
2017-12-22T08:58:23.955Z,9.76
2017-12-22T08:59:23.941Z,9.86
2017-12-22T09:00:23.948Z,9.79
2017-12-22T09:01:23.922Z,9.87
2017-12-22T09:02:23.926Z,9.87
2017-12-22T09:03:23.906Z,9.89
2017-12-22T09:04:23.906Z,9.99
2017-12-22T09:05:23.893Z,9.93
2017-12-22T09:06:23.928Z,9.99
2017-12-22T09:07:23.886Z,9.94
2017-12-22T09:08:23.853Z,10.02
2017-12-22T09:09:23.882Z,9.93
2017-12-22T09:10:23.856Z,9.9
2017-12-22T09:11:23.867Z,9.94
2017-12-22T09:12:23.861Z,9.91
2017-12-22T09:13:23.923Z,9.86
2017-12-22T09:14:23.856Z,9.84
2017-12-22T09:15:23.788Z,9.76
2017-12-22T09:16:23.783Z,9.71
2017-12-22T09:17:23.794Z,9.83
2017-12-22T09:18:23.785Z,9.65
2017-12-22T09:19:23.810Z,9.65
2017-12-22T09:20:23.754Z,9.72
2017-12-22T09:21:23.741Z,9.68
2017-12-22T09:22:23.743Z,9.72
2017-12-22T09:23:23.459Z,9.65
2017-12-22T09:24:23.747Z,9.71
2017-12-22T09:25:23.711Z,9.66
2017-12-22T09:26:23.703Z,9.69
2017-12-22T09:27:23.732Z,9.79
2017-12-22T09:28:23.674Z,9.81
2017-12-22T09:29:23.679Z,9.76
2017-12-22T09:30:23.674Z,9.84
2017-12-22T09:31:23.370Z,9.87
2017-12-22T09:32:23.615Z,9.76
2017-12-22T09:33:23.668Z,9.84
2017-12-22T09:34:23.616Z,9.81
2017-12-22T09:35:23.584Z,9.84
2017-12-22T09:36:23.321Z,9.87
2017-12-22T09:37:23.633Z,9.79
2017-12-22T09:38:23.343Z,9.86
2017-12-22T09:39:23.596Z,9.89
2017-12-22T09:40:23.550Z,9.91
2017-12-22T09:41:23.561Z,9.96
2017-12-22T09:42:23.519Z,10.02
2017-12-22T09:43:23.513Z,10.02
2017-12-22T09:44:23.513Z,10.08
2017-12-22T09:45:23.497Z,10.12
2017-12-22T09:46:23.540Z,10.09
2017-12-22T09:47:23.476Z,10.17
2017-12-22T09:48:23.486Z,10.22
2017-12-22T09:49:23.467Z,10.22
2017-12-22T09:50:23.444Z,10.23
2017-12-22T09:51:23.485Z,10.3
2017-12-22T09:52:23.432Z,10.23
2017-12-22T09:53:23.161Z,10.29
2017-12-22T09:54:23.476Z,10.32
2017-12-22T09:55:23.660Z,10.25
2017-12-22T09:56:23.148Z,10.26
2017-12-22T09:57:23.382Z,10.3
2017-12-22T09:58:23.382Z,10.3
2017-12-22T09:59:23.352Z,10.34
2017-12-22T10:00:23.350Z,10.27
2017-12-22T10:01:23.375Z,10.32
2017-12-22T10:02:23.338Z,10.33
2017-12-22T10:03:23.083Z,10.4
2017-12-22T10:04:23.353Z,10.42
2017-12-22T10:05:23.314Z,10.33
2017-12-22T10:06:23.095Z,10.42
2017-12-22T10:07:23.064Z,10.4
2017-12-22T10:08:23.026Z,10.44
2017-12-22T10:09:23.291Z,10.42
2017-12-22T10:10:23.265Z,10.51
2017-12-22T10:11:23.252Z,10.41
2017-12-22T10:12:23.293Z,10.42
2017-12-22T10:13:23.227Z,10.42
2017-12-22T10:14:23.225Z,10.48
2017-12-22T10:15:23.198Z,10.41
2017-12-22T10:16:23.209Z,10.44
2017-12-22T10:17:23.242Z,10.44
2017-12-22T10:18:23.268Z,10.47
2017-12-22T10:19:23.247Z,10.42
2017-12-22T10:20:23.207Z,10.36
2017-12-22T10:21:23.217Z,10.47
2017-12-22T10:22:22.951Z,10.41
2017-12-22T10:23:23.242Z,10.47
2017-12-22T10:24:23.145Z,10.47
2017-12-22T10:25:23.208Z,10.51
2017-12-22T10:26:23.449Z,10.47
2017-12-22T10:27:22.889Z,10.48
2017-12-22T10:28:23.109Z,10.53
2017-12-22T10:29:22.826Z,10.51
2017-12-22T10:30:23.095Z,10.63
2017-12-22T10:31:23.056Z,10.66
2017-12-22T10:32:23.057Z,10.78
2017-12-22T10:33:23.049Z,10.74
2017-12-22T10:34:23.031Z,10.85
2017-12-22T10:35:23.029Z,10.91
2017-12-22T10:36:23.224Z,10.94
2017-12-22T10:37:23.028Z,10.89
2017-12-22T10:38:23.056Z,11.06
2017-12-22T10:39:23.000Z,11.11
2017-12-22T10:40:23.032Z,11.11
2017-12-22T10:41:22.992Z,11.09
2017-12-22T10:42:23.248Z,11.15
2017-12-22T10:43:22.722Z,11.11
2017-12-22T10:44:23.055Z,11.07
2017-12-22T10:45:23.008Z,11.06
2017-12-22T10:46:22.929Z,10.97
2017-12-22T10:47:22.944Z,10.86
2017-12-22T10:48:22.917Z,10.91
2017-12-22T10:49:22.915Z,10.86
2017-12-22T10:50:22.916Z,10.86
2017-12-22T10:51:22.915Z,10.81
2017-12-22T10:52:22.869Z,10.74
2017-12-22T10:53:22.869Z,10.66
2017-12-22T10:54:22.876Z,10.64
2017-12-22T10:55:22.834Z,10.55
2017-12-22T10:56:22.839Z,10.6
2017-12-22T10:57:22.829Z,10.52
2017-12-22T10:58:22.826Z,10.55
2017-12-22T10:59:22.812Z,10.6
2017-12-22T11:00:22.817Z,10.48
2017-12-22T11:01:22.789Z,10.45
2017-12-22T11:02:22.795Z,10.52
2017-12-22T11:03:22.791Z,10.42
2017-12-22T11:04:22.535Z,10.32
2017-12-22T11:05:22.758Z,10.34
2017-12-22T11:06:22.766Z,10.32
2017-12-22T11:07:22.477Z,10.25
2017-12-22T11:08:22.794Z,10.18
2017-12-22T11:09:22.707Z,10.09
2017-12-22T11:10:22.744Z,10.12
2017-12-22T11:11:22.693Z,10.09
2017-12-22T11:12:22.693Z,9.96
2017-12-22T11:13:22.690Z,9.89
2017-12-22T11:14:22.668Z,9.86
2017-12-22T11:15:22.665Z,9.83
2017-12-22T11:16:22.663Z,9.89
2017-12-22T11:17:22.686Z,9.79
2017-12-22T11:18:22.638Z,9.75
2017-12-22T11:19:22.622Z,9.75
2017-12-22T11:20:22.352Z,9.79
2017-12-22T11:21:22.596Z,9.75
2017-12-22T11:22:22.627Z,9.81
2017-12-22T11:23:22.348Z,9.78
2017-12-22T11:24:22.561Z,9.84
2017-12-22T11:25:22.564Z,9.87
2017-12-22T11:26:22.299Z,9.86
2017-12-22T11:27:22.614Z,9.87
2017-12-22T11:28:22.554Z,9.86
2017-12-22T11:29:22.553Z,9.96
2017-12-22T11:30:22.530Z,10.01
2017-12-22T11:31:22.785Z,9.96
2017-12-22T11:32:22.499Z,9.93
2017-12-22T11:33:22.432Z,10.07
2017-12-22T11:34:22.466Z,10.04
2017-12-22T11:35:22.462Z,9.91
2017-12-22T11:36:22.206Z,9.96
2017-12-22T11:37:22.460Z,9.96
2017-12-22T11:38:22.454Z,9.99
2017-12-22T11:39:22.204Z,9.91
2017-12-22T11:40:23.263Z,9.97
2017-12-22T11:41:22.423Z,9.96
2017-12-22T11:42:22.399Z,10.01
2017-12-22T11:43:22.397Z,10.02
2017-12-22T11:44:22.370Z,10.01
2017-12-22T11:45:22.358Z,9.9
2017-12-22T11:46:22.129Z,9.91
2017-12-22T11:47:22.353Z,10.02
2017-12-22T11:48:22.355Z,10.07
2017-12-22T11:49:22.342Z,10.11
2017-12-22T11:50:22.337Z,10.14
2017-12-22T11:51:22.319Z,10.02
2017-12-22T11:52:22.308Z,10.05
2017-12-22T11:53:22.297Z,10.09
2017-12-22T11:54:22.296Z,10.09
2017-12-22T11:55:22.274Z,10.08
2017-12-22T11:56:22.255Z,10.12
2017-12-22T11:57:22.308Z,10.07
2017-12-22T11:58:22.243Z,10.09
2017-12-22T11:59:22.227Z,10.08
2017-12-22T12:00:22.259Z,10.05
2017-12-22T12:01:22.219Z,10.05
2017-12-22T12:02:22.221Z,10.05
2017-12-22T12:03:22.187Z,10.14
2017-12-22T12:04:22.182Z,10.07
2017-12-22T12:05:22.168Z,10.01
2017-12-22T12:06:22.169Z,10.11
2017-12-22T12:07:22.158Z,9.99
2017-12-22T12:08:22.149Z,10.09
2017-12-22T12:09:22.143Z,10.07
2017-12-22T12:10:22.121Z,10.15
2017-12-22T12:11:22.108Z,10.07
2017-12-22T12:12:22.098Z,10.05
2017-12-22T12:13:22.087Z,10.12
2017-12-22T12:14:22.088Z,10.09
2017-12-22T12:15:22.079Z,10.23
2017-12-22T12:16:22.105Z,10.2
2017-12-22T12:17:22.056Z,10.2
2017-12-22T12:18:22.039Z,10.18
2017-12-22T12:19:22.092Z,10.2
2017-12-22T12:20:21.802Z,10.18
2017-12-22T12:21:22.026Z,10.18
2017-12-22T12:22:22.051Z,10.15
2017-12-22T12:23:22.007Z,10.23
2017-12-22T12:24:21.734Z,10.14
2017-12-22T12:25:21.979Z,10.17
2017-12-22T12:26:21.971Z,10.2
2017-12-22T12:27:21.742Z,10.22
2017-12-22T12:28:22.002Z,10.27
2017-12-22T12:29:21.935Z,10.26
2017-12-22T12:30:22.054Z,10.26
2017-12-22T12:31:21.915Z,10.29
2017-12-22T12:32:21.930Z,10.3
2017-12-22T12:33:21.904Z,10.33
2017-12-22T12:34:21.913Z,10.33
2017-12-22T12:35:21.635Z,10.4
2017-12-22T12:36:21.622Z,10.34
2017-12-22T12:37:21.865Z,10.34
2017-12-22T12:38:21.849Z,10.26
2017-12-22T12:39:21.847Z,10.34
2017-12-22T12:40:21.841Z,10.34
2017-12-22T12:41:21.572Z,10.32
2017-12-22T12:42:21.815Z,10.33
2017-12-22T12:43:21.864Z,10.26
2017-12-22T12:44:21.822Z,10.33
2017-12-22T12:45:21.806Z,10.26
2017-12-22T12:46:21.857Z,10.33
2017-12-22T12:47:21.546Z,10.34
2017-12-22T12:48:21.785Z,10.3
2017-12-22T12:49:21.791Z,10.36
2017-12-22T12:50:21.484Z,10.26
2017-12-22T12:51:21.738Z,10.32
2017-12-22T12:52:21.731Z,10.22
2017-12-22T12:53:21.711Z,10.33
2017-12-22T12:54:21.706Z,10.32
2017-12-22T12:55:21.687Z,10.38
2017-12-22T12:56:21.694Z,10.33
2017-12-22T12:57:21.698Z,10.3
2017-12-22T12:58:21.670Z,10.32
2017-12-22T12:59:21.677Z,10.36
2017-12-22T13:00:21.648Z,10.34
2017-12-22T13:01:21.630Z,10.3
2017-12-22T13:02:21.626Z,10.27
2017-12-22T13:03:21.634Z,10.26
2017-12-22T13:04:21.699Z,10.26
2017-12-22T13:05:21.593Z,10.2
2017-12-22T13:06:21.338Z,10.17
2017-12-22T13:07:21.590Z,10.15
2017-12-22T13:08:21.576Z,10.15
2017-12-22T13:09:21.564Z,10.23
2017-12-22T13:10:21.561Z,10.22
2017-12-22T13:11:21.289Z,10.12
2017-12-22T13:12:21.533Z,10.18
2017-12-22T13:13:21.649Z,10.05
2017-12-22T13:14:21.512Z,10.09